Novo Jardim, Brazil
Current Conditions -  °F | °C
As of 5:00 AM on Sunday 23 Nov 2014 (Local Time) from SBPJ Reporting Station
Light Rain Light Rain  
Wind Chill: 79°   Ceiling: 10000
Heat Index: 82°   Visibility: 6mi
Dew Point: 73°   Wind: 8mph
Humidity: 83%   Direction: 180°S
Pressure: NA   Gusts: NA
Location:  11.82°S, 46.63°W
Report Text: SBPJ 230800Z 18007KT 9000 -RA FEW015 FEW033TCU BKN100 26/23 Q1010
Loading
Personal Weather Stations






























Interactive Weather Map New forecast layout! Learn more

10-Day Weather Forecast

Advertisements
Track Severe Weather on mobile